Time;durP1;ratioP1;P1;durP2;ratioP2;P2;SDS_P1;SDS_P2;PMS_P1;PMS_P2;Temp;Humidity;BMP_temperature;BMP_pressure;BME280_temperature;BME280_humidity;BME280_pressure;Samples;Min_cycle;Max_cycle;Signal;HPM_P1;HPM_P2
2021/11/05 00:00:52;;;;;;;20.23;6.63;;;0.60;99.90;;;;;;5054080;28;20037;-95
2021/11/05 00:03:18;;;;;;;19.20;5.28;;;0.60;99.90;;;;;;5054348;28;20029;-92
2021/11/05 00:05:44;;;;;;;16.95;5.50;;;0.60;99.90;;;;;;5054122;28;20041;-92
2021/11/05 00:08:10;;;;;;;10.15;3.65;;;0.50;99.90;;;;;;5054047;28;20106;-92
2021/11/05 00:10:42;;;;;;;46.92;16.17;;;0.50;99.90;;;;;;5054257;28;20036;-91
2021/11/05 00:13:09;;;;;;;14.20;5.10;;;0.50;99.90;;;;;;5054224;28;20036;-92
2021/11/05 00:15:35;;;;;;;4.57;2.03;;;0.40;99.90;;;;;;5055013;28;20113;-91
2021/11/05 00:18:00;;;;;;;24.15;7.50;;;0.40;99.90;;;;;;5058175;28;20057;-91
2021/11/05 00:20:27;;;;;;;17.65;6.10;;;0.40;99.90;;;;;;5055402;28;20047;-91
2021/11/05 00:22:53;;;;;;;20.77;8.55;;;0.40;99.90;;;;;;5054870;28;20044;-92
2021/11/05 00:25:20;;;;;;;34.75;10.95;;;0.30;99.90;;;;;;5054493;28;20032;-92
2021/11/05 00:27:46;;;;;;;28.60;10.38;;;0.30;99.90;;;;;;5055373;28;20037;-92
2021/11/05 00:30:13;;;;;;;25.13;7.95;;;0.30;99.90;;;;;;5061962;28;20041;-91
2021/11/05 00:32:39;;;;;;;28.98;9.43;;;0.30;99.90;;;;;;5061076;28;20028;-93
2021/11/05 00:35:06;;;;;;;26.50;9.20;;;0.30;99.90;;;;;;5060781;28;20040;-91
2021/11/05 00:37:32;;;;;;;34.00;11.70;;;0.20;99.90;;;;;;5061080;28;20092;-91
2021/11/05 00:39:58;;;;;;;28.77;10.18;;;0.20;99.90;;;;;;5058554;28;20041;-92
2021/11/05 00:42:24;;;;;;;28.20;11.82;;;0.30;99.90;;;;;;5058122;28;20597;-92
2021/11/05 00:44:50;;;;;;;17.85;7.55;;;0.30;99.90;;;;;;5055893;28;20049;-91
2021/11/05 00:47:16;;;;;;;17.30;5.90;;;0.30;99.90;;;;;;5054612;28;20116;-93
2021/11/05 00:49:43;;;;;;;23.45;8.25;;;0.30;99.90;;;;;;5054105;28;20450;-93
2021/11/05 00:52:09;;;;;;;19.90;7.35;;;0.20;99.90;;;;;;5053903;28;20380;-92
2021/11/05 00:54:34;;;;;;;24.67;8.35;;;0.30;99.90;;;;;;5054118;28;20021;-91
2021/11/05 00:57:00;;;;;;;21.90;8.65;;;0.20;99.90;;;;;;5053549;28;20076;-91
2021/11/05 00:59:26;;;;;;;26.40;10.13;;;0.20;99.90;;;;;;5053603;28;20025;-93
2021/11/05 01:01:52;;;;;;;22.88;8.10;;;0.20;99.90;;;;;;5053731;28;20116;-93
2021/11/05 01:04:17;;;;;;;26.27;8.23;;;0.20;99.90;;;;;;5053484;28;20033;-92
2021/11/05 01:06:43;;;;;;;31.40;11.00;;;0.20;99.90;;;;;;5053207;28;20041;-92
2021/11/05 01:09:09;;;;;;;27.83;10.40;;;0.20;99.90;;;;;;5053598;28;20116;-92
2021/11/05 01:11:34;;;;;;;36.58;13.15;;;0.10;99.90;;;;;;5053286;28;20033;-92
2021/11/05 01:14:01;;;;;;;37.97;12.70;;;0.10;99.90;;;;;;5053207;28;20032;-92
2021/11/05 01:16:26;;;;;;;18.17;6.93;;;0.10;99.90;;;;;;5053270;28;20037;-92
2021/11/05 01:18:53;;;;;;;20.58;7.20;;;0.10;99.90;;;;;;5053406;28;20024;-91
2021/11/05 01:21:18;;;;;;;36.65;12.18;;;0.10;99.90;;;;;;5053092;28;20025;-90
2021/11/05 01:23:45;;;;;;;20.27;7.22;;;0.10;99.90;;;;;;5053030;28;20032;-90
2021/11/05 01:26:11;;;;;;;17.30;5.82;;;0.00;99.90;;;;;;5053172;28;20033;-90
2021/11/05 01:28:37;;;;;;;14.77;7.13;;;0.10;99.90;;;;;;5053042;28;20028;-92
2021/11/05 01:31:03;;;;;;;18.33;6.90;;;0.10;99.90;;;;;;5053156;28;20025;-92
2021/11/05 01:33:29;;;;;;;14.48;4.53;;;0.00;99.90;;;;;;5053053;28;20505;-91
2021/11/05 01:35:55;;;;;;;14.88;4.70;;;0.00;99.90;;;;;;5052687;28;20036;-92
2021/11/05 01:38:20;;;;;;;9.05;3.78;;;0.00;99.90;;;;;;5053066;28;20028;-89
2021/11/05 01:40:46;;;;;;;19.13;7.18;;;-0.10;99.90;;;;;;5052730;28;20033;-92
2021/11/05 01:43:13;;;;;;;17.27;7.55;;;0.00;99.90;;;;;;5052752;28;20123;-92
2021/11/05 01:45:41;;;;;;;22.55;6.60;;;-0.10;99.90;;;;;;5052681;28;20041;-92
2021/11/05 01:48:07;;;;;;;19.73;7.50;;;-0.10;99.90;;;;;;5052628;28;20040;-89
2021/11/05 01:50:33;;;;;;;17.63;6.65;;;-0.10;99.90;;;;;;5052470;28;20037;-90
2021/11/05 01:52:59;;;;;;;25.02;8.85;;;-0.10;99.90;;;;;;5052777;28;20025;-88
2021/11/05 01:55:25;;;;;;;20.08;7.32;;;-0.10;99.90;;;;;;5052520;28;20029;-90
2021/11/05 01:57:51;;;;;;;17.50;6.50;;;-0.10;99.90;;;;;;5052374;28;20052;-90
2021/11/05 02:00:20;;;;;;;17.73;7.38;;;-0.10;99.90;;;;;;5052563;28;20031;-90
2021/11/05 02:02:46;;;;;;;19.83;7.63;;;-0.10;99.90;;;;;;5052942;28;20493;-89
2021/11/05 02:05:13;;;;;;;24.65;7.60;;;-0.20;99.90;;;;;;5052186;28;20059;-90
2021/11/05 02:07:44;;;;;;;14.95;6.45;;;-0.20;99.90;;;;;;5052555;28;20037;-92
2021/11/05 02:10:11;;;;;;;16.38;5.82;;;-0.20;99.90;;;;;;5052964;28;20064;-91
2021/11/05 02:12:37;;;;;;;17.08;6.03;;;-0.20;99.90;;;;;;5052943;28;20040;-90
2021/11/05 02:15:06;;;;;;;18.38;6.95;;;-0.20;99.90;;;;;;5052414;28;20111;-90
2021/11/05 02:17:31;;;;;;;16.45;6.10;;;-0.20;99.90;;;;;;5052349;28;20025;-91
2021/11/05 02:19:59;;;;;;;7.93;3.17;;;-0.20;99.90;;;;;;5052547;28;20131;-91
2021/11/05 02:22:24;;;;;;;14.77;5.55;;;-0.20;99.90;;;;;;5052458;28;20021;-91
2021/11/05 02:24:50;;;;;;;15.00;6.47;;;-0.20;99.90;;;;;;5052284;28;20079;-91
2021/11/05 02:27:17;;;;;;;10.85;4.03;;;-0.20;99.90;;;;;;5052307;28;20032;-91
2021/11/05 02:29:43;;;;;;;17.63;5.30;;;-0.20;99.90;;;;;;5052063;28;20021;-92
2021/11/05 02:32:09;;;;;;;32.50;9.32;;;-0.20;99.90;;;;;;5052354;28;20120;-91
2021/11/05 02:34:35;;;;;;;32.35;11.32;;;-0.30;99.90;;;;;;5052312;28;20025;-93
2021/11/05 02:37:03;;;;;;;29.55;9.32;;;-0.30;99.90;;;;;;5052015;28;20515;-92
2021/11/05 02:39:29;;;;;;;26.42;9.25;;;-0.30;99.90;;;;;;5051785;28;20414;-92
2021/11/05 02:41:55;;;;;;;20.92;7.70;;;-0.30;99.90;;;;;;5053337;28;20399;-92
2021/11/05 02:44:22;;;;;;;15.32;5.55;;;-0.40;99.90;;;;;;5052145;28;20025;-91
2021/11/05 02:46:48;;;;;;;14.02;5.53;;;-0.40;99.90;;;;;;5051657;28;20037;-91
2021/11/05 02:49:16;;;;;;;15.85;6.97;;;-0.40;99.90;;;;;;5051877;28;20024;-92
2021/11/05 02:51:45;;;;;;;20.65;8.20;;;-0.40;99.90;;;;;;5052226;28;20048;-91
2021/11/05 02:54:11;;;;;;;23.00;8.35;;;-0.40;99.90;;;;;;5052402;28;20029;-90
2021/11/05 02:56:37;;;;;;;28.83;8.45;;;-0.40;99.90;;;;;;5052155;28;20037;-91
2021/11/05 02:59:04;;;;;;;21.02;7.55;;;-0.40;99.90;;;;;;5052624;28;20037;-90
2021/11/05 03:01:31;;;;;;;19.98;6.43;;;-0.40;99.90;;;;;;5052051;28;20079;-91
2021/11/05 03:04:06;;;;;;;11.52;5.18;;;-0.40;99.90;;;;;;5054878;28;20119;-91
2021/11/05 03:06:40;;;;;;;9.02;3.45;;;-0.40;99.90;;;;;;5055786;28;20076;-91
2021/11/05 03:09:07;;;;;;;8.20;3.47;;;-0.40;99.90;;;;;;5055363;28;20124;-91
2021/11/05 03:11:33;;;;;;;18.52;6.65;;;-0.30;99.90;;;;;;5055418;28;20108;-91
2021/11/05 03:13:59;;;;;;;24.63;8.23;;;-0.40;99.90;;;;;;5055514;28;20371;-92
2021/11/05 03:16:24;;;;;;;18.58;6.25;;;-0.40;99.90;;;;;;5055585;28;20031;-90
2021/11/05 03:18:50;;;;;;;18.13;7.30;;;-0.50;99.90;;;;;;5055559;28;20032;-91
2021/11/05 03:21:16;;;;;;;14.73;6.20;;;-0.50;99.90;;;;;;5055530;28;20032;-91
2021/11/05 03:23:41;;;;;;;14.90;5.38;;;-0.50;99.90;;;;;;5055476;28;20040;-92
2021/11/05 03:26:07;;;;;;;15.10;6.90;;;-0.50;99.90;;;;;;5055177;28;20056;-91
2021/11/05 03:28:33;;;;;;;17.23;7.03;;;-0.50;99.90;;;;;;5055169;28;20040;-91
2021/11/05 03:30:59;;;;;;;12.73;4.88;;;-0.50;99.90;;;;;;5055282;28;20037;-91
2021/11/05 03:33:24;;;;;;;11.05;3.97;;;-0.40;99.90;;;;;;5055115;28;20029;-92
2021/11/05 03:35:50;;;;;;;8.63;4.15;;;-0.50;99.90;;;;;;5055234;28;20463;-92
2021/11/05 03:38:16;;;;;;;11.15;3.45;;;-0.50;99.90;;;;;;5055328;28;20025;-90
2021/11/05 03:40:42;;;;;;;7.07;3.45;;;-0.50;99.90;;;;;;5054872;28;20032;-91
2021/11/05 03:43:08;;;;;;;9.45;3.80;;;-0.50;99.90;;;;;;5054974;28;20029;-92
2021/11/05 03:45:34;;;;;;;9.65;3.08;;;-0.60;99.90;;;;;;5054715;28;20036;-91
2021/11/05 03:47:59;;;;;;;9.98;4.65;;;-0.60;99.90;;;;;;5054999;28;20052;-92
2021/11/05 03:50:25;;;;;;;11.73;4.78;;;-0.60;99.90;;;;;;5053226;28;20025;-90
2021/11/05 03:52:51;;;;;;;8.65;4.05;;;-0.60;99.90;;;;;;5054945;28;20017;-92
2021/11/05 03:55:16;;;;;;;7.82;4.50;;;-0.50;99.90;;;;;;5054621;28;20475;-91
2021/11/05 03:57:42;;;;;;;9.75;3.45;;;-0.50;99.90;;;;;;5054821;28;20080;-90
2021/11/05 04:00:10;;;;;;;8.60;4.25;;;-0.50;99.90;;;;;;5058830;28;20029;-89
2021/11/05 04:02:37;;;;;;;5.32;2.85;;;-0.50;99.90;;;;;;5061759;28;20119;-90
2021/11/05 04:05:03;;;;;;;6.32;2.60;;;-0.50;99.90;;;;;;5061271;28;20063;-92
2021/11/05 04:07:29;;;;;;;11.65;4.20;;;-0.60;99.90;;;;;;5059717;28;20029;-92
2021/11/05 04:09:54;;;;;;;16.55;5.05;;;-0.60;99.90;;;;;;5059582;28;20494;-93
2021/11/05 04:12:20;;;;;;;11.40;5.97;;;-0.60;99.90;;;;;;5059175;28;20032;-93
2021/11/05 04:14:46;;;;;;;14.15;5.22;;;-0.60;99.90;;;;;;5056636;28;20075;-92
2021/11/05 04:17:13;;;;;;;14.55;5.72;;;-0.70;99.90;;;;;;5055059;28;20458;-91
2021/11/05 04:19:42;;;;;;;13.85;4.90;;;-0.70;99.90;;;;;;5054449;28;20033;-90
2021/11/05 04:22:08;;;;;;;9.35;4.25;;;-0.70;99.90;;;;;;5054606;28;20025;-91
2021/11/05 04:24:34;;;;;;;11.70;4.25;;;-0.70;99.90;;;;;;5054358;28;20110;-91
2021/11/05 04:27:00;;;;;;;11.73;4.45;;;-0.70;99.90;;;;;;5054333;28;20203;-91
2021/11/05 04:29:26;;;;;;;12.18;4.82;;;-0.70;99.90;;;;;;5053972;28;20136;-91
2021/11/05 04:31:52;;;;;;;13.38;5.18;;;-0.70;99.90;;;;;;5054381;28;20174;-91
2021/11/05 04:34:17;;;;;;;9.82;4.63;;;-0.80;99.90;;;;;;5053987;28;20422;-92
2021/11/05 04:36:43;;;;;;;10.98;4.03;;;-0.80;99.90;;;;;;5053564;28;20097;-91
2021/11/05 04:39:16;;;;;;;11.73;5.30;;;-0.80;99.90;;;;;;5053554;28;20021;-91
2021/11/05 04:41:45;;;;;;;13.98;4.90;;;-0.80;99.90;;;;;;5053386;28;20138;-93
2021/11/05 04:44:11;;;;;;;8.90;4.35;;;-0.80;99.90;;;;;;5053152;28;20028;-91
2021/11/05 04:46:37;;;;;;;11.10;4.85;;;-0.80;99.90;;;;;;5050573;28;20060;-92
2021/11/05 04:49:04;;;;;;;11.35;5.13;;;-0.80;99.90;;;;;;5053123;28;20017;-92
2021/11/05 04:51:30;;;;;;;9.73;4.72;;;-0.80;99.90;;;;;;5053396;28;20021;-92
2021/11/05 04:53:55;;;;;;;10.60;4.53;;;-0.90;99.90;;;;;;5053221;28;20090;-91
2021/11/05 04:56:21;;;;;;;10.85;4.55;;;-0.90;99.90;;;;;;5053314;28;20479;-92
2021/11/05 04:58:47;;;;;;;8.65;3.60;;;-0.90;99.90;;;;;;5052357;28;20056;-91
2021/11/05 05:01:13;;;;;;;10.90;3.83;;;-0.90;99.90;;;;;;5054070;28;20079;-92
2021/11/05 05:03:38;;;;;;;7.57;3.20;;;-1.00;99.90;;;;;;5053858;28;20023;-91
2021/11/05 05:06:04;;;;;;;9.30;3.80;;;-1.00;99.90;;;;;;5053751;28;20041;-91
2021/11/05 05:08:30;;;;;;;11.98;4.63;;;-1.00;99.90;;;;;;5052841;28;20498;-91
2021/11/05 05:10:56;;;;;;;9.35;4.03;;;-1.00;99.90;;;;;;5044327;28;20126;-92
2021/11/05 05:13:21;;;;;;;14.10;4.35;;;-1.10;99.90;;;;;;5044397;28;20018;-90
2021/11/05 05:15:49;;;;;;;9.20;3.58;;;-1.10;99.90;;;;;;5052482;28;20033;-90
2021/11/05 05:18:15;;;;;;;11.40;4.15;;;-1.10;99.90;;;;;;5043982;28;20021;-90
2021/11/05 05:20:43;;;;;;;11.25;4.10;;;-1.10;99.90;;;;;;5043109;28;20041;-90
2021/11/05 05:23:10;;;;;;;13.57;3.78;;;-1.10;99.90;;;;;;5048118;28;20039;-90
2021/11/05 05:25:36;;;;;;;8.63;4.15;;;-1.10;99.90;;;;;;5051884;28;20071;-90
2021/11/05 05:28:03;;;;;;;10.02;3.75;;;-1.10;99.90;;;;;;5052221;28;20041;-91
2021/11/05 05:30:28;;;;;;;9.90;3.58;;;-1.10;99.90;;;;;;5052972;28;20112;-91
2021/11/05 05:32:54;;;;;;;8.57;4.20;;;-1.10;99.90;;;;;;5052601;28;20556;-90
2021/11/05 05:35:21;;;;;;;11.02;3.97;;;-1.10;99.90;;;;;;5052428;28;20048;-90
2021/11/05 05:37:48;;;;;;;13.80;4.30;;;-1.10;99.90;;;;;;5052500;28;20031;-90
2021/11/05 05:40:15;;;;;;;11.00;4.55;;;-1.10;99.90;;;;;;5052211;28;20029;-90
2021/11/05 05:42:42;;;;;;;7.82;3.67;;;-1.10;99.90;;;;;;5052688;28;20119;-91
2021/11/05 05:45:08;;;;;;;8.52;3.90;;;-1.10;99.90;;;;;;5052366;28;20037;-90
2021/11/05 05:47:35;;;;;;;16.98;4.93;;;-1.10;99.90;;;;;;5052638;28;20025;-91
2021/11/05 05:50:03;;;;;;;14.05;4.13;;;-1.00;99.90;;;;;;5052375;28;20024;-89
2021/11/05 05:52:28;;;;;;;9.40;4.20;;;-1.10;99.90;;;;;;5052305;28;20033;-90
2021/11/05 05:54:54;;;;;;;16.25;5.25;;;-1.10;99.90;;;;;;5052213;28;20561;-90
2021/11/05 05:57:20;;;;;;;12.60;4.70;;;-1.10;99.90;;;;;;5052421;28;20084;-90
2021/11/05 05:59:46;;;;;;;12.18;4.90;;;-1.10;99.90;;;;;;5052012;28;20466;-90
2021/11/05 06:02:12;;;;;;;16.67;4.75;;;-1.20;99.90;;;;;;5052631;28;20025;-90
2021/11/05 06:04:37;;;;;;;18.38;5.82;;;-1.20;99.90;;;;;;5052637;28;20532;-90
2021/11/05 06:07:04;;;;;;;16.25;5.20;;;-1.20;99.90;;;;;;5052350;28;20044;-91
2021/11/05 06:09:29;;;;;;;15.05;5.57;;;-1.20;99.90;;;;;;5052189;28;20393;-91
2021/11/05 06:11:55;;;;;;;18.00;5.68;;;-1.20;99.90;;;;;;5052205;28;20120;-91
2021/11/05 06:14:21;;;;;;;17.92;5.72;;;-1.20;99.90;;;;;;5051827;28;20025;-91
2021/11/05 06:16:47;;;;;;;12.75;5.13;;;-1.20;99.90;;;;;;5052107;28;20029;-92
2021/11/05 06:19:12;;;;;;;16.70;6.05;;;-1.20;99.90;;;;;;5052585;28;20390;-91
2021/11/05 06:21:38;;;;;;;13.30;4.93;;;-1.20;99.90;;;;;;5051899;28;20033;-91
2021/11/05 06:24:04;;;;;;;12.23;4.88;;;-1.20;99.90;;;;;;5052017;28;20120;-91
2021/11/05 06:26:29;;;;;;;17.25;5.10;;;-1.20;99.90;;;;;;5051914;28;20064;-91
2021/11/05 06:28:55;;;;;;;11.63;4.93;;;-1.30;99.90;;;;;;5051790;28;20458;-91
2021/11/05 06:31:21;;;;;;;15.00;5.18;;;-1.20;99.90;;;;;;5052354;28;20040;-91
2021/11/05 06:33:47;;;;;;;15.32;5.28;;;-1.20;99.90;;;;;;5051977;28;20029;-91
2021/11/05 06:36:13;;;;;;;15.32;4.00;;;-1.20;99.90;;;;;;5051831;28;20082;-92
2021/11/05 06:38:39;;;;;;;14.23;4.90;;;-1.20;99.90;;;;;;5053531;28;20025;-90
2021/11/05 06:41:05;;;;;;;11.52;4.90;;;-1.20;99.90;;;;;;5056003;28;20044;-91
2021/11/05 06:43:30;;;;;;;18.10;5.78;;;-1.20;99.90;;;;;;5055373;28;20070;-90
2021/11/05 06:45:56;;;;;;;17.83;5.95;;;-1.10;99.90;;;;;;5055496;28;20036;-89
2021/11/05 06:48:22;;;;;;;25.98;7.82;;;-1.20;99.90;;;;;;5055547;28;20025;-90
2021/11/05 06:50:48;;;;;;;15.23;5.50;;;-1.20;99.90;;;;;;5055435;28;20123;-90
2021/11/05 06:53:13;;;;;;;22.63;5.93;;;-1.30;99.90;;;;;;5054238;28;20017;-92
2021/11/05 06:55:39;;;;;;;18.92;6.25;;;-1.30;99.90;;;;;;5055375;28;20032;-91
2021/11/05 06:58:05;;;;;;;14.30;4.78;;;-1.30;99.90;;;;;;5054953;28;20037;-92
2021/11/05 07:00:32;;;;;;;19.67;5.78;;;-1.30;99.90;;;;;;5055985;28;20352;-90
2021/11/05 07:03:02;;;;;;;16.52;5.30;;;-1.30;99.90;;;;;;5055295;28;20025;-91
2021/11/05 07:05:28;;;;;;;13.00;5.10;;;-1.30;99.90;;;;;;5054900;28;20037;-91
2021/11/05 07:07:54;;;;;;;15.43;5.05;;;-1.20;99.90;;;;;;5063395;28;20394;-91
2021/11/05 07:10:19;;;;;;;8.63;4.43;;;-1.30;99.90;;;;;;5063327;28;20018;-91
2021/11/05 07:12:47;;;;;;;11.55;4.47;;;-1.20;99.90;;;;;;5063023;28;20029;-91
2021/11/05 07:15:13;;;;;;;13.00;4.40;;;-1.20;99.90;;;;;;5054853;28;20021;-91
2021/11/05 07:17:39;;;;;;;10.88;4.35;;;-1.10;99.90;;;;;;5054965;28;20028;-92
2021/11/05 07:20:07;;;;;;;11.80;4.10;;;-1.10;99.90;;;;;;5055214;28;20112;-91
2021/11/05 07:22:33;;;;;;;9.43;4.13;;;-1.10;99.90;;;;;;5054929;28;20111;-92
2021/11/05 07:25:04;;;;;;;16.27;6.53;;;-1.10;99.90;;;;;;5064466;28;20458;-92
2021/11/05 07:27:30;;;;;;;13.63;4.63;;;-1.00;99.90;;;;;;5056179;28;20083;-92
2021/11/05 07:29:57;;;;;;;16.42;6.65;;;-1.00;99.90;;;;;;5063211;28;20315;-90
2021/11/05 07:32:23;;;;;;;16.95;6.70;;;-1.00;99.90;;;;;;5070778;28;20465;-92
2021/11/05 07:34:53;;;;;;;28.42;6.53;;;-0.90;99.90;;;;;;5060530;28;20056;-90
2021/11/05 07:37:20;;;;;;;13.98;5.68;;;-0.90;99.90;;;;;;5060527;28;20032;-90
2021/11/05 07:39:47;;;;;;;21.90;6.53;;;-0.90;99.90;;;;;;5067249;28;20048;-91
2021/11/05 07:42:13;;;;;;;21.92;7.05;;;-0.80;99.90;;;;;;5063633;28;20112;-91
2021/11/05 07:44:41;;;;;;;17.30;6.55;;;-0.80;99.90;;;;;;5057888;28;20021;-91
2021/11/05 07:47:08;;;;;;;9.93;5.00;;;-0.70;99.90;;;;;;5043277;28;20128;-91
2021/11/05 07:49:35;;;;;;;15.55;5.68;;;-0.60;99.90;;;;;;5052320;28;20025;-91
2021/11/05 07:52:02;;;;;;;14.75;6.13;;;-0.50;99.90;;;;;;5036265;28;20467;-91
2021/11/05 07:54:27;;;;;;;16.52;6.22;;;-0.40;99.90;;;;;;5047642;28;20028;-91
2021/11/05 07:56:53;;;;;;;17.25;6.15;;;-0.40;99.90;;;;;;5055663;28;20044;-93
2021/11/05 07:59:19;;;;;;;24.73;7.65;;;-0.30;99.90;;;;;;5055869;28;20367;-92
2021/11/05 08:01:44;;;;;;;32.47;10.68;;;-0.20;99.90;;;;;;5056354;28;20029;-92
2021/11/05 08:04:10;;;;;;;39.03;12.80;;;-0.20;99.90;;;;;;5056109;28;20032;-92
2021/11/05 08:06:36;;;;;;;86.43;25.77;;;-0.20;99.90;;;;;;5056300;28;20043;-92
2021/11/05 08:09:03;;;;;;;80.78;23.88;;;-0.10;99.90;;;;;;5055811;28;20115;-92
2021/11/05 08:11:30;;;;;;;70.03;19.98;;;-0.10;99.90;;;;;;5055877;28;20025;-91
2021/11/05 08:13:57;;;;;;;70.15;24.40;;;0.00;99.90;;;;;;5072591;28;20028;-91
2021/11/05 08:16:22;;;;;;;69.28;21.48;;;0.00;99.90;;;;;;5072261;28;20020;-93
2021/11/05 08:18:49;;;;;;;67.05;20.52;;;0.10;99.90;;;;;;5055481;28;21053;-92
2021/11/05 08:21:15;;;;;;;67.28;22.55;;;0.20;99.90;;;;;;5055380;28;20021;-91
2021/11/05 08:23:41;;;;;;;38.60;12.23;;;0.20;99.90;;;;;;5056368;28;20098;-91
2021/11/05 08:26:07;;;;;;;27.70;10.32;;;0.30;99.90;;;;;;5055254;28;20490;-90
2021/11/05 08:28:37;;;;;;;29.48;10.25;;;0.40;99.90;;;;;;5067941;28;20036;-91
2021/11/05 08:31:04;;;;;;;15.43;6.70;;;0.50;99.90;;;;;;5060012;28;20032;-92
2021/11/05 08:33:30;;;;;;;13.98;5.18;;;0.60;99.90;;;;;;5061545;28;20088;-91
2021/11/05 08:35:56;;;;;;;16.13;6.47;;;0.70;99.90;;;;;;5063906;28;20021;-91
2021/11/05 08:38:24;;;;;;;18.52;7.05;;;0.80;99.90;;;;;;5071510;28;20033;-91
2021/11/05 08:40:52;;;;;;;16.52;6.75;;;0.80;99.90;;;;;;5056790;28;20024;-93
2021/11/05 08:43:20;;;;;;;20.30;8.18;;;1.00;99.90;;;;;;5065155;28;20033;-92
2021/11/05 08:45:49;;;;;;;21.50;7.68;;;1.00;99.90;;;;;;5064846;28;20037;-92
2021/11/05 08:48:16;;;;;;;22.77;9.75;;;1.10;99.90;;;;;;5065774;28;20028;-93
2021/11/05 08:50:42;;;;;;;19.73;7.68;;;1.20;99.90;;;;;;5073488;28;20060;-93
2021/11/05 08:53:09;;;;;;;31.52;10.40;;;1.30;99.90;;;;;;5065493;28;20032;-92
2021/11/05 08:55:37;;;;;;;22.70;8.32;;;1.40;99.90;;;;;;5072792;28;20008;-93
2021/11/05 08:58:03;;;;;;;23.55;9.55;;;1.50;99.90;;;;;;5071643;28;20041;-93
2021/11/05 09:00:32;;;;;;;23.48;8.60;;;1.70;99.90;;;;;;5073989;28;20009;-93
2021/11/05 09:02:58;;;;;;;24.00;9.65;;;1.80;99.90;;;;;;5074251;28;20568;-93
2021/11/05 09:05:24;;;;;;;21.55;8.35;;;2.00;99.90;;;;;;5064760;28;20024;-93
2021/11/05 09:07:49;;;;;;;22.13;9.43;;;2.00;99.90;;;;;;5043942;28;20033;-94
2021/11/05 09:10:18;;;;;;;19.77;7.15;;;2.20;99.90;;;;;;5055200;28;20025;-94
2021/11/05 09:12:44;;;;;;;27.17;9.50;;;2.30;99.90;;;;;;5068827;28;20032;-94
2021/11/05 09:15:12;;;;;;;20.08;7.15;;;2.40;99.90;;;;;;5068173;28;20013;-95
2021/11/05 09:17:39;;;;;;;17.63;6.85;;;2.40;99.90;;;;;;5080549;28;20048;-94
2021/11/05 09:20:09;;;;;;;19.15;6.15;;;2.40;99.90;;;;;;5075113;28;20005;-96
2021/11/05 09:22:41;;;;;;;;;;;2.50;99.90;;;;;;5069304;28;20029;-95
2021/11/05 09:25:08;;;;;;;12.30;5.35;;;2.60;99.90;;;;;;5069019;28;19940;-95
2021/11/05 09:27:43;;;;;;;11.95;5.35;;;2.70;99.90;;;;;;5059690;28;20025;-94
2021/11/05 09:30:10;;;;;;;11.27;4.38;;;2.90;99.90;;;;;;5057969;28;20029;-93
2021/11/05 09:32:37;;;;;;;13.60;5.22;;;3.10;99.90;;;;;;5047163;28;20089;-93
2021/11/05 09:35:03;;;;;;;9.30;4.55;;;3.40;99.90;;;;;;5058413;28;20036;-94
2021/11/05 09:37:31;;;;;;;11.45;4.28;;;3.80;99.90;;;;;;5069580;28;20038;-95
2021/11/05 09:40:22;;;;;;;16.80;5.10;;;4.30;99.90;;;;;;5055829;28;20104;-95
2021/11/05 09:42:54;;;;;;;;;;;4.80;99.90;;;;;;5079646;28;20029;-96
2021/11/05 09:45:26;;;;;;;25.77;8.73;;;5.00;99.90;;;;;;5038767;28;19916;-96
2021/11/05 09:47:58;;;;;;;27.27;9.30;;;5.20;99.90;;;;;;5057632;28;20051;-96
2021/11/05 09:50:33;;;;;;;28.92;8.80;;;5.20;99.90;;;;;;5073771;28;20041;-96
2021/11/05 09:56:06;;;;;;;22.67;7.80;;;5.40;99.90;;;;;;5076682;28;20043;-96
2021/11/05 09:58:41;;;;;;;26.40;6.85;;;5.50;99.90;;;;;;5075205;28;20044;-96
2021/11/05 10:01:22;;;;;;;24.40;7.53;;;5.60;99.90;;;;;;5070267;28;20037;-96
2021/11/05 10:03:48;;;;;;;21.25;7.13;;;5.70;99.90;;;;;;5056439;28;20116;-95
2021/11/05 10:06:19;;;;;;;22.15;6.28;;;5.80;99.90;;;;;;5064238;28;20041;-94
2021/11/05 10:08:51;;;;;;;21.38;6.13;;;5.90;99.90;;;;;;5066080;28;20025;-95
2021/11/05 10:11:37;;;;;;;22.48;6.18;;;6.00;99.90;;;;;;5061601;28;20025;-95
2021/11/05 10:14:04;;;;;;;13.80;4.00;;;6.10;99.90;;;;;;5064265;28;20035;-94
2021/11/05 10:16:31;;;;;;;10.60;3.28;;;6.40;99.90;;;;;;5070714;28;20028;-94
2021/11/05 10:19:05;;;;;;;6.13;2.83;;;6.60;99.90;;;;;;5071599;28;20037;-94
2021/11/05 10:21:40;;;;;;;6.65;3.00;;;6.80;99.90;;;;;;5076518;28;20021;-95
2021/11/05 10:24:28;;;;;;;7.22;2.20;;;7.10;99.90;;;;;;5075291;28;20012;-95
2021/11/05 10:27:04;;;;;;;3.97;2.40;;;7.20;99.90;;;;;;5076592;28;20045;-94
2021/11/05 10:29:33;;;;;;;11.23;4.47;;;7.40;99.90;;;;;;5054460;28;20037;-94
2021/11/05 10:32:01;;;;;;;8.88;4.32;;;7.60;99.90;;;;;;5068184;28;20075;-94
2021/11/05 10:34:28;;;;;;;7.68;3.75;;;7.50;99.90;;;;;;5062486;28;20040;-94
2021/11/05 10:36:53;;;;;;;7.10;3.60;;;7.60;99.90;;;;;;5060720;28;20159;-94
2021/11/05 10:39:19;;;;;;;6.38;3.00;;;7.60;99.90;;;;;;5059848;28;20037;-94
2021/11/05 10:41:48;;;;;;;6.25;2.95;;;7.70;99.90;;;;;;5058823;28;20032;-94
2021/11/05 10:44:16;;;;;;;6.55;3.70;;;7.80;99.90;;;;;;5059778;28;20044;-94
2021/11/05 10:46:43;;;;;;;10.30;5.55;;;7.90;99.90;;;;;;5060843;28;20047;-95
2021/11/05 10:49:31;;;;;;;8.35;4.82;;;7.90;99.90;;;;;;5061848;28;20017;-94
2021/11/05 10:52:19;;;;;;;9.10;4.38;;;8.00;99.90;;;;;;5060715;28;20025;-94
2021/11/05 10:54:57;;;;;;;10.88;4.60;;;8.10;99.90;;;;;;5059254;28;20036;-93
2021/11/05 10:57:45;;;;;;;7.53;2.40;;;8.20;99.90;;;;;;5061024;28;20041;-93
2021/11/05 11:00:27;;;;;;;7.05;1.73;;;8.20;99.90;;;;;;5058589;28;20028;-94
2021/11/05 11:02:53;;;;;;;2.63;1.58;;;8.40;99.90;;;;;;5057703;28;20039;-93
2021/11/05 11:05:34;;;;;;;6.00;2.10;;;8.50;99.90;;;;;;5064059;28;20433;-93
2021/11/05 11:08:01;;;;;;;4.70;2.17;;;8.80;99.90;;;;;;5067479;28;20029;-92
2021/11/05 11:10:29;;;;;;;3.95;1.58;;;8.90;99.90;;;;;;5063186;28;20025;-94
2021/11/05 11:12:54;;;;;;;2.42;1.42;;;9.00;99.90;;;;;;5064484;28;20036;-93
2021/11/05 11:15:35;;;;;;;4.95;1.40;;;9.10;99.90;;;;;;5062973;28;20374;-92
2021/11/05 11:18:02;;;;;;;4.68;1.50;;;9.30;99.90;;;;;;5062351;28;20033;-93
2021/11/05 11:20:36;;;;;;;5.15;1.95;;;9.70;99.90;;;;;;5059175;28;20041;-94
2021/11/05 11:23:05;;;;;;;1.38;1.27;;;10.20;99.90;;;;;;5057301;28;20071;-93
2021/11/05 11:25:31;;;;;;;2.63;1.85;;;10.50;99.90;;;;;;5056385;28;20183;-93
2021/11/05 11:27:57;;;;;;;4.00;1.98;;;10.70;99.90;;;;;;5055321;28;20039;-94
2021/11/05 11:30:23;;;;;;;5.82;2.03;;;10.90;99.90;;;;;;5057805;28;20095;-94
2021/11/05 11:32:50;;;;;;;11.50;2.58;;;11.20;99.90;;;;;;5059290;28;20120;-95
2021/11/05 11:35:17;;;;;;;4.45;2.53;;;11.40;99.90;;;;;;5057859;28;20031;-94
2021/11/05 11:37:44;;;;;;;6.90;2.35;;;11.60;99.90;;;;;;5063857;28;20025;-93
2021/11/05 11:40:13;;;;;;;7.22;3.10;;;11.70;99.90;;;;;;5065240;28;20310;-93
2021/11/05 11:42:40;;;;;;;8.65;3.30;;;11.70;99.90;;;;;;5063848;28;20028;-92
2021/11/05 11:45:11;;;;;;;4.93;2.65;;;11.70;99.90;;;;;;5051747;28;20017;-94
2021/11/05 11:47:41;;;;;;;;;;;11.70;99.90;;;;;;5065694;28;20041;-95
2021/11/05 11:50:24;;;;;;;4.63;3.20;;;11.80;99.90;;;;;;5058932;28;19908;-93
2021/11/05 11:53:10;;;;;;;3.95;3.00;;;11.90;99.90;;;;;;5054593;28;20033;-94
2021/11/05 11:55:39;;;;;;;6.97;2.90;;;12.40;99.90;;;;;;5054828;28;20021;-94
2021/11/05 11:58:20;;;;;;;5.50;2.50;;;13.00;99.90;;;;;;5051464;28;20069;-93
2021/11/05 12:00:48;;;;;;;;;;;13.70;99.90;;;;;;5060245;28;20017;-94
2021/11/05 12:03:31;;;;;;;9.40;2.78;;;14.00;99.90;;;;;;5069653;28;19905;-94
2021/11/05 12:06:01;;;;;;;5.30;2.50;;;14.00;99.90;;;;;;5070921;28;20050;-93
2021/11/05 12:08:39;;;;;;;5.25;2.47;;;13.80;99.90;;;;;;5082215;28;20025;-93
2021/11/05 12:11:15;;;;;;;4.13;2.80;;;13.40;99.90;;;;;;5065600;28;20021;-93
2021/11/05 12:13:47;;;;;;;3.92;2.35;;;12.90;99.90;;;;;;5066298;28;20122;-94
2021/11/05 12:16:22;;;;;;;8.63;2.83;;;12.50;99.90;;;;;;5066084;28;20482;-93
2021/11/05 12:21:40;;;;;;;5.65;3.20;;;11.80;99.90;;;;;;5064900;28;20032;-94
2021/11/05 12:24:15;;;;;;;7.23;3.27;;;11.50;99.90;;;;;;5065475;28;20029;-95
2021/11/05 12:27:10;;;;;;;6.28;2.60;;;11.30;99.90;;;;;;5066505;28;20124;-94
2021/11/05 12:29:37;;;;;;;2.80;2.30;;;11.10;99.90;;;;;;5064244;28;20028;-93
2021/11/05 12:32:15;;;;;;;4.93;2.90;;;10.90;99.90;;;;;;5065638;28;20028;-95
2021/11/05 12:34:56;;;;;;;3.97;2.47;;;10.80;99.90;;;;;;5062768;28;20032;-94
2021/11/05 12:37:34;;;;;;;3.55;2.38;;;10.70;99.90;;;;;;5062540;28;20025;-94
2021/11/05 12:40:51;;;;;;;4.53;2.00;;;10.70;99.90;;;;;;5062639;28;20025;-95
2021/11/05 12:43:23;;;;;;;3.65;2.47;;;10.70;99.90;;;;;;5064586;28;20040;-94
2021/11/05 12:46:04;;;;;;;3.63;2.10;;;10.60;99.90;;;;;;5058080;28;20040;-94
2021/11/05 12:48:45;;;;;;;2.35;1.85;;;10.60;99.90;;;;;;5061072;28;20033;-93
2021/11/05 12:51:14;;;;;;;3.20;1.63;;;10.60;99.90;;;;;;5062908;28;20075;-93
2021/11/05 12:53:58;;;;;;;4.30;2.30;;;10.60;99.90;;;;;;5065533;28;20025;-93